Time;durP1;ratioP1;P1;durP2;ratioP2;P2;SDS_P1;SDS_P2;PMS_P1;PMS_P2;Temp;Humidity;BMP_temperature;BMP_pressure;BME280_temperature;BME280_humidity;BME280_pressure;Samples;Min_cycle;Max_cycle;Signal;HPM_P1;HPM_P2
2023/08/21 00:01:07;;;;;;;14.18;10.15;;;25.20;55.10;;;;;;5022615;28;20738;-87
2023/08/21 00:03:34;;;;;;;12.32;10.30;;;25.10;55.10;;;;;;5023519;28;20053;-86
2023/08/21 00:06:02;;;;;;;12.48;9.93;;;25.10;55.10;;;;;;5021564;28;20508;-89
2023/08/21 00:08:29;;;;;;;11.75;10.13;;;25.10;55.20;;;;;;5023251;28;20496;-84
2023/08/21 00:10:57;;;;;;;14.48;9.77;;;25.10;55.20;;;;;;5022629;28;20881;-86
2023/08/21 00:13:25;;;;;;;11.63;9.48;;;25.10;55.30;;;;;;5020611;28;20219;-86
2023/08/21 00:15:54;;;;;;;11.20;9.93;;;25.10;55.30;;;;;;5022527;28;20409;-86
2023/08/21 00:18:21;;;;;;;11.32;10.10;;;25.10;55.40;;;;;;5023331;28;20069;-86
2023/08/21 00:20:48;;;;;;;11.50;10.10;;;25.10;55.40;;;;;;5021971;28;20056;-85
2023/08/21 00:23:16;;;;;;;11.43;10.23;;;25.00;55.40;;;;;;5022386;28;20417;-85
2023/08/21 00:25:47;;;;;;;10.70;9.60;;;25.00;55.50;;;;;;5021789;28;20056;-89
2023/08/21 00:28:14;;;;;;;11.57;10.30;;;25.00;55.50;;;;;;5021104;28;20053;-87
2023/08/21 00:30:43;;;;;;;12.57;10.00;;;25.00;55.50;;;;;;5021534;28;20049;-89
2023/08/21 00:33:10;;;;;;;13.07;10.02;;;25.00;55.60;;;;;;5022267;28;20060;-86
2023/08/21 00:35:37;;;;;;;11.43;9.57;;;25.00;55.60;;;;;;5020726;28;20057;-89
2023/08/21 00:38:05;;;;;;;10.85;9.40;;;25.00;55.70;;;;;;5021852;28;20057;-90
2023/08/21 00:40:33;;;;;;;11.75;10.02;;;25.00;55.70;;;;;;5022172;28;20050;-89
2023/08/21 00:43:00;;;;;;;11.02;9.77;;;25.00;55.80;;;;;;5021993;28;20046;-92
2023/08/21 00:45:27;;;;;;;13.18;9.52;;;24.90;55.70;;;;;;5021276;28;20048;-90
2023/08/21 00:47:56;;;;;;;11.75;9.82;;;24.90;55.70;;;;;;5021676;28;20053;-91
2023/08/21 00:50:24;;;;;;;11.63;9.75;;;24.90;55.70;;;;;;5020886;28;20060;-89
2023/08/21 00:52:51;;;;;;;12.00;10.50;;;24.80;55.70;;;;;;5020340;28;20056;-91
2023/08/21 00:55:19;;;;;;;13.75;10.30;;;24.80;55.80;;;;;;5022316;28;20049;-89
2023/08/21 00:57:47;;;;;;;10.70;9.60;;;24.80;55.80;;;;;;5019497;28;20053;-91
2023/08/21 01:00:15;;;;;;;10.98;9.13;;;24.80;55.90;;;;;;5023011;28;20508;-91
2023/08/21 01:02:42;;;;;;;11.75;9.57;;;24.80;55.90;;;;;;5048376;23;20084;-58
2023/08/21 01:05:11;;;;;;;12.52;10.20;;;24.80;56.00;;;;;;5007247;28;20050;-60
2023/08/21 01:07:48;;;;;;;13.00;10.02;;;24.70;56.00;;;;;;5007740;28;20064;-58
2023/08/21 01:10:27;;;;;;;10.90;9.35;;;24.70;56.10;;;;;;5006439;28;20060;-59
2023/08/21 01:13:02;;;;;;;12.55;10.98;;;24.70;56.20;;;;;;5006062;28;20054;-59
2023/08/21 01:15:30;;;;;;;10.60;9.50;;;24.70;56.20;;;;;;4990427;28;20058;-59
2023/08/21 01:17:59;;;;;;;11.52;10.25;;;24.70;56.20;;;;;;5008231;28;20053;-58
2023/08/21 01:20:28;;;;;;;12.27;10.30;;;24.70;56.20;;;;;;5008135;28;20065;-57
2023/08/21 01:22:55;;;;;;;12.07;9.75;;;24.60;56.20;;;;;;5005742;28;20061;-59
2023/08/21 01:25:25;;;;;;;12.98;10.32;;;24.60;56.20;;;;;;5007541;28;20073;-59
2023/08/21 01:27:53;;;;;;;11.95;10.73;;;24.60;56.20;;;;;;5004824;28;20049;-59
2023/08/21 01:30:20;;;;;;;17.75;10.73;;;24.60;56.20;;;;;;5007202;28;20064;-60
2023/08/21 01:32:57;;;;;;;12.40;10.55;;;24.60;56.30;;;;;;5008256;28;20050;-59
2023/08/21 01:35:25;;;;;;;13.15;10.85;;;24.50;56.40;;;;;;5008013;28;20050;-59
2023/08/21 01:37:53;;;;;;;13.45;10.40;;;24.50;56.50;;;;;;5007705;28;20548;-58
2023/08/21 01:40:24;;;;;;;11.93;10.73;;;24.50;56.50;;;;;;4990091;28;20054;-59
2023/08/21 01:42:53;;;;;;;14.32;10.73;;;24.50;56.60;;;;;;5004743;28;20050;-59
2023/08/21 01:45:20;;;;;;;13.10;10.40;;;24.50;56.60;;;;;;5007504;28;20073;-59
2023/08/21 01:47:47;;;;;;;13.00;10.32;;;24.40;56.60;;;;;;5006545;28;20060;-59
2023/08/21 01:50:14;;;;;;;14.80;10.30;;;24.40;56.70;;;;;;5007734;28;20060;-59
2023/08/21 01:52:42;;;;;;;12.68;10.45;;;24.40;56.70;;;;;;5006794;28;20054;-58
2023/08/21 01:55:10;;;;;;;10.75;9.63;;;24.40;56.70;;;;;;5006152;28;20061;-59
2023/08/21 01:57:38;;;;;;;14.02;10.82;;;24.40;57.20;;;;;;5006036;28;20054;-58
2023/08/21 02:00:08;;;;;;;12.23;10.65;;;24.40;56.80;;;;;;5007831;28;20398;-58
2023/08/21 02:02:35;;;;;;;14.57;9.98;;;24.30;56.80;;;;;;5006973;28;20057;-58
2023/08/21 02:05:04;;;;;;;11.40;10.25;;;24.30;56.80;;;;;;5024961;28;20049;-58
2023/08/21 02:07:31;;;;;;;12.20;10.68;;;24.30;56.80;;;;;;5025497;28;20401;-57
2023/08/21 02:09:58;;;;;;;13.95;11.32;;;24.30;56.80;;;;;;5025392;28;20053;-58
2023/08/21 02:12:25;;;;;;;15.00;11.70;;;24.20;56.80;;;;;;5024678;28;20061;-59
2023/08/21 02:14:54;;;;;;;15.57;11.65;;;24.20;56.80;;;;;;5024318;28;20050;-59
2023/08/21 02:17:21;;;;;;;13.23;11.45;;;24.20;56.90;;;;;;5024689;28;20053;-59
2023/08/21 02:19:48;;;;;;;12.85;11.15;;;24.20;56.90;;;;;;5025594;28;20052;-59
2023/08/21 02:22:16;;;;;;;13.18;11.10;;;24.10;56.90;;;;;;5025129;28;20049;-58
2023/08/21 02:24:43;;;;;;;14.48;11.65;;;24.10;57.00;;;;;;5026684;28;20796;-59
2023/08/21 02:27:10;;;;;;;12.40;11.10;;;24.10;57.10;;;;;;5024297;28;20057;-59
2023/08/21 02:29:37;;;;;;;13.60;11.07;;;24.10;57.30;;;;;;5025232;28;20683;-59
2023/08/21 02:32:06;;;;;;;14.27;11.45;;;24.00;57.20;;;;;;5025697;28;20053;-58
2023/08/21 02:34:34;;;;;;;12.60;10.52;;;24.00;57.40;;;;;;5025972;28;20100;-59
2023/08/21 02:37:01;;;;;;;13.18;11.15;;;24.00;57.40;;;;;;5024431;28;20124;-59
2023/08/21 02:39:29;;;;;;;12.63;10.93;;;24.00;57.50;;;;;;5025992;28;20045;-59
2023/08/21 02:41:56;;;;;;;11.98;10.77;;;24.00;57.50;;;;;;5023545;28;20053;-59
2023/08/21 02:44:24;;;;;;;12.75;10.48;;;24.00;58.00;;;;;;5025297;28;20057;-59
2023/08/21 02:46:51;;;;;;;15.55;10.80;;;24.00;57.60;;;;;;5026043;28;20053;-58
2023/08/21 02:49:19;;;;;;;12.63;10.30;;;24.00;57.60;;;;;;5026059;28;20080;-58
2023/08/21 02:51:46;;;;;;;16.85;10.75;;;24.00;57.70;;;;;;5019790;28;20052;-59
2023/08/21 02:54:14;;;;;;;15.55;11.68;;;23.90;57.70;;;;;;5006180;28;20057;-59
2023/08/21 02:56:41;;;;;;;15.10;12.57;;;23.90;57.70;;;;;;5002704;28;20054;-59
2023/08/21 02:59:08;;;;;;;14.63;12.07;;;23.90;57.80;;;;;;5006017;28;20413;-59
2023/08/21 03:01:35;;;;;;;12.60;11.30;;;23.90;57.80;;;;;;5004920;28;20050;-59
2023/08/21 03:04:03;;;;;;;13.10;11.70;;;23.90;57.80;;;;;;5015874;28;20060;-58
2023/08/21 03:06:31;;;;;;;13.10;11.75;;;23.90;57.80;;;;;;5024239;28;20057;-58
2023/08/21 03:08:58;;;;;;;15.65;12.38;;;23.90;57.90;;;;;;5024690;28;20072;-57
2023/08/21 03:11:26;;;;;;;13.50;11.18;;;23.80;57.90;;;;;;5023222;28;20068;-59
2023/08/21 03:13:53;;;;;;;12.95;11.13;;;23.80;58.10;;;;;;5025037;28;20468;-59
2023/08/21 03:16:20;;;;;;;13.55;11.50;;;23.80;58.00;;;;;;5025631;28;20060;-59
2023/08/21 03:18:58;;;;;;;15.00;12.18;;;23.80;58.00;;;;;;5024852;28;20519;-59
2023/08/21 03:21:25;;;;;;;14.85;11.65;;;23.80;58.20;;;;;;5025169;28;20072;-59
2023/08/21 03:23:56;;;;;;;13.05;11.13;;;23.80;58.10;;;;;;5022185;28;20061;-58
2023/08/21 03:26:23;;;;;;;16.13;12.23;;;23.80;58.20;;;;;;5022986;28;20057;-58
2023/08/21 03:28:50;;;;;;;17.05;12.77;;;23.80;58.20;;;;;;5023673;28;20053;-59
2023/08/21 03:31:18;;;;;;;13.95;11.65;;;23.80;58.10;;;;;;5024497;28;20064;-58
2023/08/21 03:33:46;;;;;;;11.90;10.70;;;23.80;58.10;;;;;;5023491;28;20064;-59
2023/08/21 03:36:13;;;;;;;15.82;11.80;;;23.80;58.20;;;;;;5024080;28;20053;-60
2023/08/21 03:38:41;;;;;;;13.00;11.35;;;23.80;58.20;;;;;;5023842;28;20509;-59
2023/08/21 03:41:09;;;;;;;14.32;11.80;;;23.80;58.20;;;;;;5023700;28;20552;-59
2023/08/21 03:43:36;;;;;;;12.93;11.52;;;23.80;58.30;;;;;;5022097;28;20064;-59
2023/08/21 03:46:04;;;;;;;14.35;12.48;;;23.70;58.30;;;;;;5023708;28;20052;-58
2023/08/21 03:48:31;;;;;;;15.15;12.05;;;23.70;58.30;;;;;;5023436;28;20056;-60
2023/08/21 03:50:58;;;;;;;13.48;11.52;;;23.70;58.30;;;;;;5023147;28;20053;-60
2023/08/21 03:53:26;;;;;;;12.52;11.20;;;23.70;58.60;;;;;;5022292;28;20493;-60
2023/08/21 03:55:53;;;;;;;16.95;12.13;;;23.70;58.40;;;;;;5023508;28;20049;-58
2023/08/21 03:58:22;;;;;;;16.42;12.25;;;23.70;58.50;;;;;;5022499;28;20084;-59
2023/08/21 04:00:49;;;;;;;15.88;12.82;;;23.70;58.50;;;;;;5024014;28;20524;-58
2023/08/21 04:03:16;;;;;;;14.30;12.20;;;23.70;58.50;;;;;;5022796;28;20054;-59
2023/08/21 04:05:44;;;;;;;15.73;12.88;;;23.60;58.50;;;;;;5023360;28;20501;-59
2023/08/21 04:08:11;;;;;;;14.98;12.07;;;23.60;58.50;;;;;;5022869;28;20060;-58
2023/08/21 04:10:38;;;;;;;15.07;12.18;;;23.60;58.50;;;;;;5023621;28;20516;-58
2023/08/21 04:13:06;;;;;;;16.48;12.82;;;23.60;58.60;;;;;;5020762;28;20057;-59
2023/08/21 04:15:35;;;;;;;13.10;11.23;;;23.60;58.70;;;;;;5022294;28;20057;-60
2023/08/21 04:18:03;;;;;;;12.77;11.35;;;23.60;58.70;;;;;;5023191;28;20058;-60
2023/08/21 04:20:30;;;;;;;12.73;11.38;;;23.60;58.80;;;;;;5023365;28;20057;-58
2023/08/21 04:22:57;;;;;;;13.60;11.95;;;23.60;58.90;;;;;;5023108;28;20057;-60
2023/08/21 04:25:25;;;;;;;13.40;11.60;;;23.50;58.90;;;;;;5023219;28;20053;-58
2023/08/21 04:27:52;;;;;;;14.43;12.73;;;23.50;58.90;;;;;;5020132;28;20057;-60
2023/08/21 04:30:19;;;;;;;13.18;11.65;;;23.50;58.90;;;;;;5022765;28;20052;-58
2023/08/21 04:32:48;;;;;;;17.30;11.35;;;23.50;58.90;;;;;;5022603;28;20056;-59
2023/08/21 04:35:15;;;;;;;13.48;11.45;;;23.50;58.90;;;;;;5022974;28;20058;-59
2023/08/21 04:37:44;;;;;;;14.05;11.35;;;23.50;59.10;;;;;;5022808;28;20064;-58
2023/08/21 04:40:13;;;;;;;15.45;11.63;;;23.50;58.90;;;;;;5022443;28;20056;-58
2023/08/21 04:42:40;;;;;;;13.30;11.90;;;23.50;58.90;;;;;;5021475;28;20057;-59
2023/08/21 04:45:09;;;;;;;12.43;11.13;;;23.50;58.90;;;;;;5021907;28;20061;-60
2023/08/21 04:47:36;;;;;;;14.32;11.35;;;23.50;58.90;;;;;;5023456;28;20064;-59
2023/08/21 04:50:05;;;;;;;15.23;10.93;;;23.50;59.00;;;;;;5023699;28;20492;-59
2023/08/21 04:52:33;;;;;;;13.73;11.27;;;23.50;59.50;;;;;;5022807;28;20053;-60
2023/08/21 04:55:02;;;;;;;13.05;10.82;;;23.50;59.00;;;;;;5022785;28;20057;-58
2023/08/21 04:57:29;;;;;;;12.40;11.07;;;23.50;59.10;;;;;;5021677;28;20045;-58
2023/08/21 04:59:57;;;;;;;13.30;10.88;;;23.40;59.10;;;;;;5022889;28;20053;-58
2023/08/21 05:02:24;;;;;;;13.68;11.73;;;23.50;59.20;;;;;;5021854;28;20080;-59
2023/08/21 05:04:51;;;;;;;18.98;14.38;;;23.40;59.20;;;;;;5022250;28;20050;-59
2023/08/21 05:07:20;;;;;;;18.38;14.75;;;23.40;59.20;;;;;;5022274;28;20488;-60
2023/08/21 05:09:47;;;;;;;17.08;12.93;;;23.40;59.20;;;;;;5022558;28;20054;-59
2023/08/21 05:12:14;;;;;;;16.77;12.93;;;23.40;59.30;;;;;;5021191;28;20124;-59
2023/08/21 05:14:41;;;;;;;13.00;11.00;;;23.40;59.30;;;;;;5021968;28;21440;-58
2023/08/21 05:17:09;;;;;;;15.65;11.75;;;23.40;59.40;;;;;;5023167;28;20045;-59
2023/08/21 05:19:36;;;;;;;12.80;11.02;;;23.40;59.50;;;;;;5022584;28;20483;-59
2023/08/21 05:22:03;;;;;;;15.75;10.68;;;23.40;59.50;;;;;;5023269;28;20065;-59
2023/08/21 05:24:33;;;;;;;12.52;10.88;;;23.40;59.60;;;;;;5022988;28;21649;-58
2023/08/21 05:27:01;;;;;;;14.23;11.05;;;23.40;59.70;;;;;;5021865;28;20413;-59
2023/08/21 05:29:28;;;;;;;13.57;10.75;;;23.40;59.80;;;;;;5022308;28;20512;-58
2023/08/21 05:31:56;;;;;;;13.27;11.32;;;23.40;59.90;;;;;;5022794;28;20060;-59
2023/08/21 05:34:25;;;;;;;14.30;11.32;;;23.40;60.00;;;;;;5020386;28;20524;-59
2023/08/21 05:36:54;;;;;;;12.38;11.00;;;23.40;60.00;;;;;;5021873;28;20056;-58
2023/08/21 05:39:21;;;;;;;13.32;10.65;;;23.40;60.00;;;;;;5021652;28;20560;-58
2023/08/21 05:41:51;;;;;;;12.40;10.57;;;23.50;60.00;;;;;;5019724;28;20049;-59
2023/08/21 05:44:18;;;;;;;13.35;10.65;;;23.50;60.00;;;;;;5022502;28;20053;-58
2023/08/21 05:46:46;;;;;;;12.45;10.60;;;23.50;60.10;;;;;;5023170;28;20048;-59
2023/08/21 05:49:13;;;;;;;11.68;10.45;;;23.50;60.20;;;;;;5026785;28;20424;-58
2023/08/21 05:51:41;;;;;;;13.25;11.25;;;23.50;60.20;;;;;;5025977;28;20408;-58
2023/08/21 05:54:08;;;;;;;12.07;10.63;;;23.50;60.30;;;;;;5024789;28;20057;-59
2023/08/21 05:56:35;;;;;;;12.82;10.60;;;23.60;60.40;;;;;;5024161;28;22059;-58
2023/08/21 05:59:04;;;;;;;14.38;10.90;;;23.60;60.60;;;;;;5026054;28;20049;-59
2023/08/21 06:01:31;;;;;;;12.02;10.75;;;23.60;60.70;;;;;;5024162;28;20057;-58
2023/08/21 06:03:59;;;;;;;12.88;10.55;;;23.60;60.70;;;;;;5025940;28;20413;-59
2023/08/21 06:06:26;;;;;;;12.93;10.70;;;23.70;60.80;;;;;;5025325;28;20527;-58
2023/08/21 06:08:53;;;;;;;12.27;10.80;;;23.70;60.90;;;;;;5025347;28;21584;-58
2023/08/21 06:11:21;;;;;;;12.40;10.45;;;23.70;61.00;;;;;;5023923;28;20608;-58
2023/08/21 06:13:48;;;;;;;13.52;10.50;;;23.70;61.10;;;;;;5025895;28;20412;-58
2023/08/21 06:16:17;;;;;;;12.00;10.40;;;23.70;61.20;;;;;;5025119;28;20061;-59
2023/08/21 06:18:44;;;;;;;12.05;10.30;;;23.80;61.20;;;;;;5025565;28;20064;-58
2023/08/21 06:21:11;;;;;;;12.93;11.00;;;23.80;61.20;;;;;;5026105;28;20060;-57
2023/08/21 06:23:39;;;;;;;12.23;10.45;;;23.90;61.30;;;;;;5023998;28;20061;-58
2023/08/21 06:26:06;;;;;;;13.68;11.10;;;23.90;61.30;;;;;;5024016;28;20045;-58
2023/08/21 06:28:33;;;;;;;11.88;10.68;;;24.00;61.20;;;;;;5025072;28;20049;-59
2023/08/21 06:31:03;;;;;;;13.20;10.63;;;24.00;61.20;;;;;;5025287;28;20056;-57
2023/08/21 06:33:31;;;;;;;12.50;10.48;;;24.00;61.10;;;;;;5025931;28;20481;-58
2023/08/21 06:35:59;;;;;;;13.10;10.77;;;24.10;61.00;;;;;;5025096;28;20064;-58
2023/08/21 06:38:26;;;;;;;11.02;9.82;;;24.10;60.90;;;;;;5023744;28;20490;-58
2023/08/21 06:40:53;;;;;;;12.82;10.48;;;24.10;60.90;;;;;;5025799;28;20062;-58
2023/08/21 06:43:21;;;;;;;14.68;10.77;;;24.20;61.20;;;;;;5023051;28;20068;-59
2023/08/21 06:45:48;;;;;;;15.07;11.25;;;24.20;61.30;;;;;;5025580;28;20049;-57
2023/08/21 06:48:16;;;;;;;18.27;11.93;;;24.30;61.40;;;;;;5025174;28;20412;-59
2023/08/21 06:50:44;;;;;;;13.55;11.88;;;24.30;61.60;;;;;;5023556;28;20053;-58
2023/08/21 06:53:11;;;;;;;14.57;11.18;;;24.20;61.50;;;;;;5024553;28;20060;-57
2023/08/21 06:55:39;;;;;;;17.23;12.60;;;24.20;61.60;;;;;;5026495;28;20227;-57
2023/08/21 06:58:06;;;;;;;19.80;13.73;;;24.20;61.80;;;;;;5022880;28;20056;-47
2023/08/21 07:00:36;;;;;;;20.27;14.25;;;24.20;62.10;;;;;;5024178;28;20417;-59
2023/08/21 07:03:07;;;;;;;19.73;13.80;;;24.20;62.30;;;;;;5025242;28;20528;-59
2023/08/21 07:05:34;;;;;;;18.27;14.38;;;24.10;62.60;;;;;;5023323;28;20076;-59
2023/08/21 07:08:03;;;;;;;23.17;15.18;;;24.10;63.20;;;;;;5023138;28;20045;-60
2023/08/21 07:10:31;;;;;;;18.90;12.55;;;24.10;63.40;;;;;;5024657;28;20061;-59
2023/08/21 07:12:58;;;;;;;17.35;14.18;;;24.10;63.70;;;;;;5023085;28;20053;-60
2023/08/21 07:15:26;;;;;;;17.35;14.27;;;24.10;64.10;;;;;;5024004;28;20060;-56
2023/08/21 07:17:55;;;;;;;17.17;13.80;;;24.10;64.20;;;;;;5024216;28;20065;-60
2023/08/21 07:20:22;;;;;;;19.25;14.98;;;24.10;64.50;;;;;;5022147;28;20053;-57
2023/08/21 07:22:50;;;;;;;17.95;15.20;;;24.10;64.60;;;;;;5022804;28;20049;-59
2023/08/21 07:25:18;;;;;;;16.48;13.95;;;24.10;64.60;;;;;;5024133;28;20060;-59
2023/08/21 07:27:45;;;;;;;21.08;15.88;;;24.10;65.00;;;;;;5022526;28;20049;-58
2023/08/21 07:30:13;;;;;;;17.45;15.38;;;24.10;64.80;;;;;;5021931;28;20056;-59
2023/08/21 07:32:40;;;;;;;22.30;13.90;;;24.10;64.70;;;;;;5024529;28;20056;-60
2023/08/21 07:35:08;;;;;;;15.60;13.10;;;24.10;64.80;;;;;;5023643;28;20716;-58
2023/08/21 07:37:36;;;;;;;21.23;15.75;;;24.10;65.30;;;;;;5024051;28;20049;-59
2023/08/21 07:40:04;;;;;;;17.75;14.82;;;24.20;65.30;;;;;;5024246;28;20053;-58
2023/08/21 07:42:33;;;;;;;19.38;16.52;;;24.20;65.20;;;;;;5022738;28;20425;-58
2023/08/21 07:45:00;;;;;;;22.95;16.30;;;24.20;65.00;;;;;;5023862;28;20057;-60
2023/08/21 07:47:28;;;;;;;24.02;16.10;;;24.20;65.10;;;;;;5023615;28;20053;-59
2023/08/21 07:49:57;;;;;;;15.95;12.75;;;24.20;65.20;;;;;;5023195;28;20516;-60
2023/08/21 07:52:24;;;;;;;16.35;13.82;;;24.30;65.30;;;;;;5023904;28;20398;-59
2023/08/21 07:54:52;;;;;;;16.60;14.32;;;24.40;65.60;;;;;;5025335;28;20060;-58
2023/08/21 07:57:20;;;;;;;18.33;13.82;;;24.40;65.40;;;;;;5022364;28;20050;-57
2023/08/21 07:59:48;;;;;;;18.42;14.23;;;24.50;65.40;;;;;;5024005;28;20069;-59
2023/08/21 08:02:16;;;;;;;22.20;16.52;;;24.50;65.30;;;;;;5024266;28;20068;-60
2023/08/21 08:04:44;;;;;;;16.52;13.40;;;24.60;65.40;;;;;;5023262;28;20064;-59
2023/08/21 08:07:12;;;;;;;14.55;12.52;;;24.60;65.20;;;;;;5022788;28;20060;-58
2023/08/21 08:09:39;;;;;;;20.70;15.02;;;24.70;65.10;;;;;;5023586;28;20386;-58
2023/08/21 08:12:07;;;;;;;14.50;12.60;;;24.70;64.90;;;;;;5022015;28;20053;-58
2023/08/21 08:14:34;;;;;;;15.38;12.10;;;24.80;65.00;;;;;;5024803;28;20061;-59
2023/08/21 08:17:03;;;;;;;13.65;11.10;;;24.90;64.80;;;;;;5024381;28;20061;-57
2023/08/21 08:19:30;;;;;;;16.67;13.70;;;24.90;64.50;;;;;;5023549;28;20401;-58
2023/08/21 08:21:57;;;;;;;17.35;13.32;;;25.00;64.40;;;;;;5023829;28;20052;-57
2023/08/21 08:24:24;;;;;;;12.52;11.10;;;25.00;64.20;;;;;;5022785;28;20053;-58
2023/08/21 08:26:52;;;;;;;17.55;12.52;;;25.10;64.20;;;;;;5022856;28;20049;-58
2023/08/21 08:29:19;;;;;;;20.35;15.48;;;25.20;63.80;;;;;;5023591;28;20055;-48
2023/08/21 08:31:46;;;;;;;17.88;14.27;;;25.20;62.90;;;;;;5023979;28;20064;-50
2023/08/21 08:34:17;;;;;;;16.05;13.13;;;25.20;62.70;;;;;;5023060;28;20057;-55
2023/08/21 08:36:45;;;;;;;16.27;12.40;;;25.30;63.00;;;;;;5022602;28;20413;-56
2023/08/21 08:39:12;;;;;;;15.85;12.25;;;25.40;63.20;;;;;;5022641;28;20060;-56
2023/08/21 08:41:46;;;;;;;20.88;12.70;;;25.40;63.30;;;;;;5021642;28;20424;-57
2023/08/21 08:44:16;;;;;;;14.88;11.68;;;25.50;63.10;;;;;;5022634;28;20049;-58
2023/08/21 08:46:44;;;;;;;17.63;12.52;;;25.50;62.50;;;;;;5023872;28;20064;-57
2023/08/21 08:49:12;;;;;;;19.02;13.68;;;25.60;62.70;;;;;;5022714;28;20052;-54
2023/08/21 08:51:42;;;;;;;19.27;13.80;;;25.60;61.60;;;;;;5022010;28;20050;-51
2023/08/21 08:54:11;;;;;;;14.73;12.60;;;25.70;61.40;;;;;;5023390;28;20639;-49
2023/08/21 08:56:39;;;;;;;13.07;11.02;;;25.80;61.20;;;;;;5021677;28;20053;-55
2023/08/21 08:59:08;;;;;;;15.02;11.20;;;25.80;61.00;;;;;;5023913;28;20045;-55
2023/08/21 09:01:36;;;;;;;19.55;11.88;;;25.80;61.00;;;;;;5023081;28;20053;-55
2023/08/21 09:04:03;;;;;;;13.25;11.60;;;25.90;60.80;;;;;;5022289;28;20058;-58
2023/08/21 09:06:33;;;;;;;19.90;12.90;;;25.90;60.70;;;;;;5022396;28;20497;-58
2023/08/21 09:09:01;;;;;;;18.83;12.52;;;26.00;60.60;;;;;;5022173;28;20052;-52
2023/08/21 09:11:29;;;;;;;14.13;11.32;;;26.00;59.30;;;;;;5022685;28;20053;-55
2023/08/21 09:13:56;;;;;;;12.20;9.93;;;26.00;59.40;;;;;;5022306;28;20059;-55
2023/08/21 09:16:25;;;;;;;13.73;9.82;;;26.10;59.60;;;;;;5023044;28;20061;-58
2023/08/21 09:18:54;;;;;;;12.45;10.23;;;26.20;59.30;;;;;;5020912;28;20108;-48
2023/08/21 09:21:22;;;;;;;17.10;11.95;;;26.20;59.10;;;;;;5021422;28;20516;-58
2023/08/21 09:23:51;;;;;;;13.98;10.55;;;26.30;58.50;;;;;;5025419;28;20072;-55
2023/08/21 09:26:23;;;;;;;13.85;10.60;;;26.30;58.40;;;;;;5025315;28;20057;-55
2023/08/21 09:28:52;;;;;;;15.68;10.63;;;26.30;58.40;;;;;;5025080;28;20045;-54
2023/08/21 09:31:23;;;;;;;11.93;9.63;;;26.40;58.50;;;;;;5026480;28;20068;-47
2023/08/21 09:33:57;;;;;;;14.93;10.80;;;26.50;57.90;;;;;;5026051;28;20049;-58
2023/08/21 09:36:24;;;;;;;14.35;9.75;;;26.50;57.10;;;;;;5024483;28;20053;-58
2023/08/21 09:38:52;;;;;;;14.00;9.73;;;26.50;56.80;;;;;;5025974;28;20053;-60
2023/08/21 09:41:22;;;;;;;19.05;8.88;;;26.60;56.20;;;;;;5024291;28;20058;-45
2023/08/21 09:43:49;;;;;;;10.80;8.80;;;26.60;56.50;;;;;;5025556;28;20061;-50
2023/08/21 09:46:17;;;;;;;16.65;10.10;;;26.70;56.60;;;;;;5027364;28;20520;-56
2023/08/21 09:48:46;;;;;;;12.13;8.88;;;26.70;55.80;;;;;;5026220;28;20049;-55
2023/08/21 09:51:13;;;;;;;12.30;9.05;;;26.80;56.10;;;;;;5024485;28;20057;-58
2023/08/21 09:53:42;;;;;;;12.82;8.57;;;26.90;56.30;;;;;;5026064;28;20057;-58
2023/08/21 09:56:09;;;;;;;12.40;8.48;;;26.90;56.30;;;;;;5024496;28;20079;-57
2023/08/21 09:58:38;;;;;;;11.80;8.25;;;27.00;56.40;;;;;;5023969;28;20053;-55
2023/08/21 10:01:11;;;;;;;11.57;8.43;;;27.00;56.20;;;;;;5026471;28;20059;-45
2023/08/21 10:03:40;;;;;;;15.70;10.50;;;27.10;56.20;;;;;;5024016;28;20504;-58
2023/08/21 10:06:09;;;;;;;14.98;9.65;;;27.20;56.00;;;;;;5025646;28;20053;-47
2023/08/21 10:08:39;;;;;;;11.25;9.23;;;27.20;55.70;;;;;;5025181;28;20060;-54
2023/08/21 10:11:08;;;;;;;11.88;8.90;;;27.20;56.30;;;;;;5024727;28;20053;-59
2023/08/21 10:13:39;;;;;;;14.48;9.23;;;27.30;55.90;;;;;;5024810;28;20057;-58
2023/08/21 10:16:08;;;;;;;15.07;9.27;;;27.40;56.10;;;;;;5023359;28;20057;-58
2023/08/21 10:18:36;;;;;;;13.35;8.70;;;27.40;55.10;;;;;;5025749;28;20064;-59
2023/08/21 10:21:14;;;;;;;13.52;8.80;;;27.50;54.70;;;;;;5025767;28;20053;-59
2023/08/21 10:23:42;;;;;;;11.48;8.05;;;27.50;54.00;;;;;;5026346;28;20057;-55
2023/08/21 10:26:11;;;;;;;14.20;8.15;;;27.50;54.30;;;;;;5025647;28;20512;-58
2023/08/21 10:28:50;;;;;;;10.13;7.47;;;27.60;54.20;;;;;;5023889;28;20045;-59
2023/08/21 10:31:28;;;;;;;16.58;7.97;;;27.60;54.00;;;;;;5024989;28;20087;-60
2023/08/21 10:33:55;;;;;;;10.88;8.20;;;27.60;54.00;;;;;;5023706;28;20064;-60
2023/08/21 10:36:56;;;;;;;16.75;7.55;;;27.70;53.90;;;;;;5023472;28;20056;-55
2023/08/21 10:39:25;;;;;;;11.25;5.88;;;27.70;53.70;;;;;;5012164;28;20064;-49
2023/08/21 10:41:56;;;;;;;8.73;6.70;;;27.70;54.00;;;;;;5023785;28;20057;-59
2023/08/21 10:44:37;;;;;;;13.77;8.23;;;27.80;53.80;;;;;;5024883;28;20069;-59
2023/08/21 10:47:16;;;;;;;10.05;7.25;;;27.80;53.20;;;;;;5025488;28;20390;-59
2023/08/21 10:49:45;;;;;;;9.75;6.35;;;27.80;53.10;;;;;;5025796;28;20053;-54
2023/08/21 10:52:12;;;;;;;11.00;6.47;;;27.80;53.60;;;;;;5024259;28;20060;-51
2023/08/21 10:54:47;;;;;;;13.00;7.07;;;27.90;53.60;;;;;;5025427;28;20488;-58
2023/08/21 10:57:15;;;;;;;10.32;7.47;;;27.90;53.10;;;;;;5023373;28;20489;-58
2023/08/21 10:59:57;;;;;;;8.35;6.47;;;27.90;53.50;;;;;;5024691;28;20064;-53
2023/08/21 11:02:25;;;;;;;11.57;8.25;;;28.00;53.60;;;;;;5023659;28;20053;-56
2023/08/21 11:04:53;;;;;;;10.18;7.60;;;28.00;53.10;;;;;;5023329;28;20053;-59
2023/08/21 11:07:21;;;;;;;8.23;4.93;;;28.10;53.20;;;;;;5024333;28;20057;-58
2023/08/21 11:09:48;;;;;;;13.27;7.15;;;28.10;52.80;;;;;;5024794;28;20054;-57
2023/08/21 11:12:17;;;;;;;9.77;6.50;;;28.10;52.30;;;;;;5022073;28;20057;-59
2023/08/21 11:14:45;;;;;;;12.85;6.97;;;28.10;52.90;;;;;;5006551;28;20511;-58
2023/08/21 11:17:14;;;;;;;15.48;7.88;;;28.10;52.60;;;;;;5024282;28;20397;-59
2023/08/21 11:19:42;;;;;;;14.05;8.07;;;28.20;52.40;;;;;;5023832;28;20049;-58
2023/08/21 11:22:10;;;;;;;12.57;7.22;;;28.20;52.40;;;;;;5023573;28;20049;-57
2023/08/21 11:24:45;;;;;;;8.38;6.45;;;28.20;52.70;;;;;;5024802;28;20049;-59
2023/08/21 11:27:14;;;;;;;14.70;8.70;;;28.20;53.10;;;;;;5023745;28;20045;-58
2023/08/21 11:29:42;;;;;;;10.77;7.70;;;28.20;52.90;;;;;;5022412;28;20489;-58
2023/08/21 11:32:12;;;;;;;10.23;7.25;;;28.30;53.20;;;;;;5023267;28;20128;-59
2023/08/21 11:34:41;;;;;;;14.10;7.10;;;28.30;53.30;;;;;;5023585;28;20550;-60
2023/08/21 11:37:09;;;;;;;10.00;6.72;;;28.30;52.70;;;;;;5022907;28;20053;-58
2023/08/21 11:39:42;;;;;;;12.85;7.68;;;28.30;52.30;;;;;;5023119;28;20048;-59
2023/08/21 11:42:11;;;;;;;16.30;8.02;;;28.30;53.00;;;;;;5021850;28;20417;-54
2023/08/21 11:44:43;;;;;;;12.02;7.97;;;28.40;52.90;;;;;;5023104;28;20236;-59
2023/08/21 11:47:10;;;;;;;18.73;9.73;;;28.40;52.60;;;;;;5023850;28;20053;-60
2023/08/21 11:49:38;;;;;;;14.90;8.60;;;28.50;51.80;;;;;;5024556;28;20413;-58
2023/08/21 11:52:07;;;;;;;12.07;8.50;;;28.50;52.10;;;;;;5021755;28;20413;-48
2023/08/21 11:54:35;;;;;;;14.75;8.60;;;28.50;52.50;;;;;;5023188;28;20049;-55
2023/08/21 11:57:12;;;;;;;12.93;8.13;;;28.60;52.50;;;;;;5021854;28;20053;-57
2023/08/21 11:59:40;;;;;;;16.58;9.88;;;28.60;52.10;;;;;;5023111;28;20052;-60
2023/08/21 12:02:19;;;;;;;14.73;9.30;;;28.70;52.20;;;;;;5023406;28;20413;-57
2023/08/21 12:04:52;;;;;;;14.15;9.00;;;28.80;52.40;;;;;;5022619;28;20520;-52
2023/08/21 12:07:20;;;;;;;17.33;10.95;;;28.80;52.30;;;;;;5023212;28;20061;-58
2023/08/21 12:09:48;;;;;;;16.15;10.82;;;28.80;51.30;;;;;;5023075;28;20536;-58
2023/08/21 12:12:16;;;;;;;19.00;12.80;;;28.90;52.20;;;;;;5022518;28;20052;-60
2023/08/21 12:14:43;;;;;;;18.38;10.52;;;28.90;50.60;;;;;;5019963;28;20055;-59
2023/08/21 12:17:10;;;;;;;15.27;8.85;;;28.90;51.60;;;;;;5021774;28;20060;-57
2023/08/21 12:19:38;;;;;;;11.77;7.38;;;28.90;50.90;;;;;;5022474;28;20488;-61
2023/08/21 12:22:05;;;;;;;15.15;8.13;;;28.90;50.90;;;;;;5021424;28;20060;-59
2023/08/21 12:24:34;;;;;;;11.70;7.75;;;29.00;50.30;;;;;;5024028;28;20053;-57
2023/08/21 12:27:01;;;;;;;13.63;7.97;;;28.90;50.80;;;;;;5021264;28;20068;-59
2023/08/21 12:29:28;;;;;;;11.77;7.13;;;28.90;50.80;;;;;;5023776;28;21123;-59
2023/08/21 12:31:56;;;;;;;11.20;6.80;;;29.00;50.50;;;;;;5022953;28;20053;-58
2023/08/21 12:34:23;;;;;;;14.80;7.50;;;29.00;50.00;;;;;;5022327;28;20064;-58
2023/08/21 12:36:51;;;;;;;12.10;6.88;;;29.00;50.10;;;;;;5022080;28;20055;-57